Terminal Aerodrome Forecast
Issued by NWS

Home | Current Version | Previous Version | Text Only | Print | Product List | Glossary On
Versions: 1 2 3 4 5 6 7 8 9 10 11 12 13 14 15
000
FTUS45 KFGZ 100500 RRA
TAFPRC
TAF
KPRC 100544Z 1006/1106 19006KT P6SM FEW080 BKN100
     FM101800 22008KT P6SM SCT060 BKN150
      TEMPO 1019/1023 5SM -TSRA BKN060CB
     FM110100 20006KT P6SM FEW060 BKN200=

USA.gov is the U.S. government's official web portal to all federal, state and local government web resources and services.